createdAt,value
2022-12-23T00:03:28.807Z,8.27
2022-12-23T00:05:56.866Z,8.40
2022-12-23T00:08:25.825Z,8.39
2022-12-23T00:10:56.744Z,8.18
2022-12-23T00:13:43.319Z,8.16
2022-12-23T00:16:13.903Z,7.80
2022-12-23T00:18:42.733Z,7.81
2022-12-23T00:21:13.321Z,7.88
2022-12-23T00:23:46.233Z,7.78
2022-12-23T00:26:18.274Z,7.97
2022-12-23T00:28:45.930Z,7.89
2022-12-23T00:31:14.406Z,7.83
2022-12-23T00:33:44.859Z,8.07
2022-12-23T00:36:14.050Z,8.07
2022-12-23T00:39:00.299Z,8.06
2022-12-23T00:41:46.627Z,8.05
2022-12-23T00:44:14.404Z,7.97
2022-12-23T00:46:42.103Z,7.88
2022-12-23T00:49:31.591Z,7.95
2022-12-23T00:51:59.925Z,7.95
2022-12-23T00:54:27.819Z,8.02
2022-12-23T00:56:55.594Z,8.09
2022-12-23T00:59:23.176Z,8.27
2022-12-23T01:02:09.819Z,8.26
2022-12-23T01:04:56.149Z,8.18
2022-12-23T01:07:24.291Z,8.12
2022-12-23T01:09:51.963Z,7.88
2022-12-23T01:12:19.809Z,8.04
2022-12-23T01:14:47.567Z,8.32
2022-12-23T01:17:15.307Z,8.45
2022-12-23T01:19:43.019Z,8.41
2022-12-23T01:22:16.607Z,8.28
2022-12-23T01:24:44.244Z,8.45
2022-12-23T01:27:11.865Z,8.18
2022-12-23T01:29:39.513Z,7.90
2022-12-23T01:32:07.143Z,7.77
2022-12-23T01:34:37.385Z,8.03
2022-12-23T01:37:05.593Z,8.16
2022-12-23T01:39:33.259Z,8.24
2022-12-23T01:42:19.807Z,8.40
2022-12-23T01:45:09.663Z,8.20
2022-12-23T01:47:42.837Z,8.19
2022-12-23T01:50:22.306Z,8.20
2022-12-23T01:52:51.912Z,8.35
2022-12-23T01:55:23.005Z,8.37
2022-12-23T01:57:53.339Z,8.33
2022-12-23T02:00:39.695Z,8.32
2022-12-23T02:03:39.775Z,8.41
2022-12-23T02:06:27.680Z,7.88
2022-12-23T02:09:14.042Z,8.03
2022-12-23T02:12:18.698Z,8.14
2022-12-23T02:15:21.896Z,8.10
2022-12-23T02:18:02.222Z,8.29
2022-12-23T02:20:49.303Z,8.27
2022-12-23T02:23:38.258Z,8.19
2022-12-23T02:26:42.805Z,8.20
2022-12-23T02:30:04.796Z,8.24
2022-12-23T02:32:35.199Z,8.24
2022-12-23T02:35:32.539Z,8.14
2022-12-23T02:38:10.421Z,8.14
2022-12-23T02:40:40.833Z,8.19
2022-12-23T02:43:18.919Z,8.12
2022-12-23T02:45:52.517Z,8.06
2022-12-23T02:48:39.031Z,8.09
2022-12-23T02:51:09.705Z,8.04
2022-12-23T02:53:47.614Z,8.18
2022-12-23T02:56:17.917Z,8.16
2022-12-23T02:58:53.373Z,8.11
2022-12-23T03:01:21.035Z,8.12
2022-12-23T03:03:51.073Z,8.18
2022-12-23T03:06:30.209Z,8.19
2022-12-23T03:08:59.968Z,8.08
2022-12-23T03:11:40.355Z,8.16
2022-12-23T03:14:14.831Z,8.14
2022-12-23T03:17:03.539Z,7.99
2022-12-23T03:19:33.939Z,7.82
2022-12-23T03:22:37.230Z,7.90
2022-12-23T03:25:13.963Z,7.97
2022-12-23T03:27:52.650Z,7.96
2022-12-23T03:30:21.211Z,7.94
2022-12-23T03:33:20.971Z,8.04
2022-12-23T03:36:03.647Z,8.15
2022-12-23T03:38:33.878Z,8.39
2022-12-23T03:41:08.075Z,8.28
2022-12-23T03:43:46.745Z,8.35
2022-12-23T03:46:25.494Z,8.21
2022-12-23T03:48:58.890Z,8.40
2022-12-23T03:51:34.925Z,8.28
2022-12-23T03:54:10.673Z,8.01
2022-12-23T03:56:43.422Z,8.13
2022-12-23T03:59:20.307Z,8.20
2022-12-23T04:01:54.062Z,8.34
2022-12-23T04:04:42.121Z,8.37
2022-12-23T04:07:17.537Z,8.02
2022-12-23T04:09:45.264Z,8.07
2022-12-23T04:12:15.110Z,8.27
2022-12-23T04:14:48.037Z,8.22
2022-12-23T04:17:16.592Z,8.29
2022-12-23T04:19:45.822Z,8.28
2022-12-23T04:22:15.041Z,8.21
2022-12-23T04:24:43.195Z,8.38
2022-12-23T04:27:14.170Z,8.36
2022-12-23T04:29:42.757Z,8.19
2022-12-23T04:32:10.869Z,8.22
2022-12-23T04:34:39.572Z,8.20
2022-12-23T04:37:07.385Z,8.14
2022-12-23T04:39:35.054Z,8.07
2022-12-23T04:42:02.740Z,8.10
2022-12-23T04:44:30.532Z,8.10
2022-12-23T04:46:58.368Z,8.19
2022-12-23T04:49:26.063Z,8.32
2022-12-23T04:51:53.661Z,8.09
2022-12-23T04:54:21.285Z,8.19
2022-12-23T04:56:48.992Z,8.15
2022-12-23T04:59:16.682Z,8.33
2022-12-23T05:01:44.736Z,8.20
2022-12-23T05:04:13.414Z,7.86
2022-12-23T05:06:41.179Z,8.12
2022-12-23T05:09:09.108Z,7.82
2022-12-23T05:11:41.935Z,7.86
2022-12-23T05:14:10.925Z,7.86
2022-12-23T05:16:39.175Z,8.05
2022-12-23T05:19:07.173Z,8.08
2022-12-23T05:21:34.827Z,8.16
2022-12-23T05:24:02.463Z,8.10
2022-12-23T05:26:30.058Z,8.19
2022-12-23T05:28:57.699Z,8.20
2022-12-23T05:31:25.512Z,7.97
2022-12-23T05:33:53.272Z,8.20
2022-12-23T05:36:20.923Z,7.93
2022-12-23T05:38:48.692Z,7.77
2022-12-23T05:41:17.043Z,7.75
2022-12-23T05:43:44.671Z,7.84
2022-12-23T05:46:12.626Z,7.84
2022-12-23T05:48:40.310Z,7.93
2022-12-23T05:51:07.975Z,8.04
2022-12-23T05:53:35.572Z,8.03
2022-12-23T05:56:07.815Z,7.95
2022-12-23T05:58:37.616Z,7.89
2022-12-23T06:01:05.726Z,7.94
2022-12-23T06:03:33.605Z,7.84
2022-12-23T06:06:01.363Z,7.92
2022-12-23T06:08:29.183Z,7.96
2022-12-23T06:10:56.870Z,7.97
2022-12-23T06:13:24.386Z,7.86
2022-12-23T06:15:51.935Z,7.94
2022-12-23T06:18:19.498Z,7.74
2022-12-23T06:20:47.821Z,7.78
2022-12-23T06:23:15.423Z,7.73
2022-12-23T06:25:52.607Z,7.73
2022-12-23T06:28:20.457Z,7.68
2022-12-23T06:31:42.032Z,7.74
2022-12-23T06:34:20.139Z,7.80
2022-12-23T06:36:56.204Z,7.76
2022-12-23T06:39:32.168Z,7.84
2022-12-23T06:42:08.154Z,7.74
2022-12-23T06:44:44.620Z,7.79
2022-12-23T06:47:12.355Z,7.72
2022-12-23T06:49:39.884Z,7.73
2022-12-23T06:52:07.486Z,7.66
2022-12-23T06:54:35.174Z,7.67
2022-12-23T06:57:02.735Z,7.63
2022-12-23T06:59:30.861Z,7.65
2022-12-23T07:01:58.647Z,7.82
2022-12-23T07:04:26.413Z,7.82
2022-12-23T07:06:54.005Z,7.81
2022-12-23T07:09:21.630Z,7.88
2022-12-23T07:11:49.233Z,7.52
2022-12-23T07:14:17.691Z,7.74
2022-12-23T07:16:45.455Z,7.87
2022-12-23T07:19:13.310Z,7.92
2022-12-23T07:21:47.428Z,7.78
2022-12-23T07:24:15.030Z,7.96
2022-12-23T07:26:42.594Z,8.11
2022-12-23T07:29:10.134Z,8.03
2022-12-23T07:31:40.891Z,8.01
2022-12-23T07:34:09.546Z,8.27
2022-12-23T07:36:37.260Z,8.36
2022-12-23T07:39:04.947Z,8.23
2022-12-23T07:41:32.620Z,8.30
2022-12-23T07:44:07.830Z,8.24
2022-12-23T07:46:35.532Z,8.29
2022-12-23T07:49:03.188Z,8.45
2022-12-23T07:51:30.913Z,8.32
2022-12-23T07:53:58.639Z,8.22
2022-12-23T07:56:26.253Z,8.38
2022-12-23T07:58:54.420Z,8.34
2022-12-23T08:01:22.297Z,8.39
2022-12-23T08:03:50.164Z,8.34
2022-12-23T08:06:17.874Z,8.48
2022-12-23T08:08:46.710Z,8.64
2022-12-23T08:11:15.604Z,8.54
2022-12-23T08:13:44.804Z,8.60
2022-12-23T08:16:12.695Z,8.70
2022-12-23T08:18:42.152Z,8.50
2022-12-23T08:21:15.175Z,8.59
2022-12-23T08:23:43.741Z,8.53
2022-12-23T08:26:19.909Z,8.71
2022-12-23T08:28:48.694Z,8.68
2022-12-23T08:31:28.485Z,8.47
2022-12-23T08:33:57.735Z,8.43
2022-12-23T08:36:28.251Z,8.53
2022-12-23T08:38:58.371Z,8.54
2022-12-23T08:41:32.009Z,8.57
2022-12-23T08:43:59.744Z,8.70
2022-12-23T08:46:28.427Z,8.71
2022-12-23T08:48:56.382Z,8.61
2022-12-23T08:51:25.802Z,8.80
2022-12-23T08:54:00.162Z,9.01
2022-12-23T08:56:32.512Z,9.01
2022-12-23T08:59:01.063Z,9.28
2022-12-23T09:01:31.553Z,9.29
2022-12-23T09:04:01.711Z,9.16
2022-12-23T09:06:34.670Z,8.94
2022-12-23T09:09:02.400Z,9.21
2022-12-23T09:11:30.275Z,9.51
2022-12-23T09:14:00.493Z,9.63
2022-12-23T09:16:29.565Z,9.49
2022-12-23T09:18:57.733Z,9.37
2022-12-23T09:21:25.375Z,9.91
2022-12-23T09:23:53.054Z,10.47
2022-12-23T09:26:23.961Z,9.93
2022-12-23T09:28:51.652Z,10.11
2022-12-23T09:31:22.268Z,9.53
2022-12-23T09:34:16.352Z,10.23
2022-12-23T09:40:24.982Z,10.93
2022-12-23T09:43:37.193Z,10.54
2022-12-23T09:46:57.857Z,11.36
2022-12-23T09:59:05.979Z,11.80
2022-12-23T10:01:57.221Z,12.00
2022-12-23T10:04:39.921Z,11.47
2022-12-23T10:07:22.870Z,11.66
2022-12-23T10:14:28.856Z,11.35
2022-12-23T10:17:07.858Z,11.28
2022-12-23T10:19:43.187Z,10.94
2022-12-23T10:22:16.222Z,11.10
2022-12-23T10:24:48.491Z,10.76
2022-12-23T10:27:40.246Z,10.92
2022-12-23T10:30:42.022Z,10.42
2022-12-23T10:33:56.311Z,11.08
2022-12-23T10:36:45.092Z,11.16
2022-12-23T10:39:24.096Z,11.32
2022-12-23T10:42:10.944Z,11.00
2022-12-23T10:44:54.222Z,11.19
2022-12-23T10:47:49.348Z,10.91
2022-12-23T10:50:34.799Z,10.77
2022-12-23T10:53:05.971Z,11.04
2022-12-23T10:55:38.439Z,11.30
2022-12-23T10:58:13.497Z,11.17
2022-12-23T11:00:51.409Z,10.85
2022-12-23T11:03:29.745Z,10.96
2022-12-23T11:10:13.494Z,11.05
2022-12-23T11:12:44.220Z,11.39
2022-12-23T11:15:37.892Z,11.13
2022-12-23T11:18:14.432Z,11.24
2022-12-23T11:20:45.015Z,10.62
2022-12-23T11:23:26.602Z,11.04
2022-12-23T11:26:20.673Z,11.02
2022-12-23T11:28:56.609Z,10.60
2022-12-23T11:31:33.628Z,10.51
2022-12-23T11:34:06.275Z,10.59
2022-12-23T11:36:34.649Z,11.33
2022-12-23T11:39:13.519Z,11.25
2022-12-23T11:41:50.173Z,10.97
2022-12-23T11:44:22.096Z,10.51
2022-12-23T11:46:50.898Z,10.59
2022-12-23T11:50:41.301Z,10.27
2022-12-23T11:53:21.704Z,9.92
2022-12-23T11:56:16.618Z,10.18
2022-12-23T11:58:53.550Z,10.02
2022-12-23T12:01:25.517Z,9.96
2022-12-23T12:04:01.201Z,10.46
2022-12-23T12:55:23.187Z,10.51
2022-12-23T12:57:53.261Z,10.72
2022-12-23T13:00:23.648Z,10.50
2022-12-23T13:03:07.931Z,10.64
2022-12-23T13:05:56.863Z,10.32
2022-12-23T13:08:37.505Z,10.55
2022-12-23T13:11:35.770Z,10.13
2022-12-23T13:14:30.302Z,10.10
2022-12-23T13:17:08.442Z,10.10
2022-12-23T13:19:56.058Z,10.25
2022-12-23T13:22:32.318Z,10.10
2022-12-23T13:25:05.838Z,10.10
2022-12-23T13:27:44.453Z,10.11
2022-12-23T13:30:17.908Z,10.21
2022-12-23T13:33:23.925Z,10.26
2022-12-23T13:36:44.415Z,10.37
2022-12-23T13:39:58.291Z,10.07
2022-12-23T13:50:47.685Z,9.95
2022-12-23T14:05:50.971Z,9.79
2022-12-23T14:13:07.217Z,9.88
2022-12-23T14:15:53.193Z,10.02
2022-12-23T14:39:52.379Z,9.98
2022-12-23T14:51:53.252Z,9.87
2022-12-23T14:54:38.768Z,9.96
2022-12-23T14:57:25.889Z,10.00
2022-12-23T15:00:04.413Z,9.93
2022-12-23T15:02:38.911Z,9.97
2022-12-23T15:05:07.157Z,10.04
2022-12-23T15:07:40.614Z,9.84
2022-12-23T15:10:22.251Z,9.85
2022-12-23T15:12:55.531Z,9.69
2022-12-23T15:15:28.812Z,9.58
2022-12-23T15:18:49.433Z,9.78
2022-12-23T15:21:17.544Z,9.45
2022-12-23T15:23:50.601Z,9.34
2022-12-23T15:26:19.280Z,9.13
2022-12-23T15:28:47.366Z,9.24
2022-12-23T15:31:27.072Z,9.39
2022-12-23T15:34:07.771Z,8.98
2022-12-23T15:36:40.567Z,8.94
2022-12-23T15:39:19.713Z,9.12
2022-12-23T15:41:48.487Z,8.93
2022-12-23T15:44:23.955Z,8.91
2022-12-23T15:46:52.126Z,8.93
2022-12-23T15:49:21.848Z,8.81
2022-12-23T15:52:17.952Z,8.82
2022-12-23T15:54:52.413Z,9.01
2022-12-23T15:57:23.456Z,8.99
2022-12-23T15:59:51.348Z,8.84
2022-12-23T16:05:25.953Z,8.98
2022-12-23T16:08:12.164Z,9.02
2022-12-23T16:11:13.303Z,8.90
2022-12-23T16:14:28.791Z,8.86
2022-12-23T16:17:14.162Z,8.85
2022-12-23T16:19:52.234Z,8.81
2022-12-23T16:22:27.846Z,8.94
2022-12-23T16:25:25.852Z,8.95
2022-12-23T16:28:06.487Z,8.95
2022-12-23T16:31:06.171Z,8.67
2022-12-23T16:33:48.547Z,8.74
2022-12-23T16:37:10.563Z,8.63
2022-12-23T16:39:40.644Z,8.70
2022-12-23T16:51:54.070Z,8.91
2022-12-23T16:54:25.952Z,8.93
2022-12-23T16:56:53.725Z,8.98
2022-12-23T16:59:31.811Z,8.98
2022-12-23T17:02:03.344Z,9.13
2022-12-23T17:04:32.471Z,9.04
2022-12-23T17:06:59.971Z,9.10
2022-12-23T17:09:28.606Z,9.04
2022-12-23T17:12:02.533Z,9.02
2022-12-23T17:14:31.108Z,8.99
2022-12-23T17:16:58.737Z,8.86
2022-12-23T17:19:29.397Z,8.89
2022-12-23T17:22:03.071Z,9.01
2022-12-23T17:24:30.759Z,9.00
2022-12-23T17:26:58.391Z,8.73
2022-12-23T17:29:26.097Z,8.99
2022-12-23T17:31:54.852Z,8.82
2022-12-23T17:34:32.908Z,9.01
2022-12-23T17:37:15.888Z,8.98
2022-12-23T17:39:44.467Z,9.02
2022-12-23T17:42:25.752Z,9.01
2022-12-23T17:44:53.845Z,9.05
2022-12-23T17:47:22.598Z,9.11
2022-12-23T17:49:53.011Z,9.13
2022-12-23T17:52:22.668Z,9.04
2022-12-23T17:54:51.661Z,8.91
2022-12-23T17:57:25.142Z,9.09
2022-12-23T17:59:54.612Z,9.13
2022-12-23T18:02:33.195Z,9.18
2022-12-23T18:05:02.194Z,9.34
2022-12-23T18:07:29.685Z,9.15
2022-12-23T18:10:15.919Z,9.28
2022-12-23T18:12:46.856Z,9.17
2022-12-23T18:15:39.885Z,9.16
2022-12-23T18:18:32.073Z,9.23
2022-12-23T18:21:07.527Z,9.27
2022-12-23T18:23:37.237Z,9.35
2022-12-23T18:26:04.832Z,9.19
2022-12-23T18:28:32.410Z,9.24
2022-12-23T18:31:00.203Z,9.16
2022-12-23T18:33:30.474Z,9.14
2022-12-23T18:35:58.350Z,9.26
2022-12-23T18:38:26.092Z,9.30
2022-12-23T18:40:56.688Z,9.36
2022-12-23T18:43:25.431Z,9.02
2022-12-23T18:45:54.077Z,9.27
2022-12-23T18:48:22.008Z,9.27
2022-12-23T18:50:49.913Z,9.29
2022-12-23T18:53:24.691Z,9.27
2022-12-23T18:55:53.933Z,9.36
2022-12-23T18:58:21.710Z,9.45
2022-12-23T19:00:51.365Z,9.51
2022-12-23T19:03:28.933Z,9.51
2022-12-23T19:05:57.830Z,9.46
2022-12-23T19:08:33.045Z,9.50
2022-12-23T19:11:00.997Z,9.48
2022-12-23T19:13:28.898Z,9.50
2022-12-23T19:15:56.668Z,9.36
2022-12-23T19:18:24.290Z,9.50
2022-12-23T19:20:51.925Z,9.17
2022-12-23T19:23:19.410Z,9.15
2022-12-23T19:25:54.514Z,8.97
2022-12-23T19:28:23.170Z,9.06
2022-12-23T19:30:50.895Z,9.17
2022-12-23T19:33:18.549Z,9.17
2022-12-23T19:35:46.215Z,9.27
2022-12-23T19:38:14.003Z,9.34
2022-12-23T19:40:41.607Z,9.34
2022-12-23T19:43:09.183Z,9.37
2022-12-23T19:45:36.712Z,9.45
2022-12-23T19:48:04.599Z,9.42
2022-12-23T19:50:32.321Z,9.19
2022-12-23T19:52:59.843Z,8.98
2022-12-23T19:55:27.308Z,9.08
2022-12-23T19:57:54.915Z,9.21
2022-12-23T20:00:22.508Z,9.32
2022-12-23T20:02:55.125Z,9.21
2022-12-23T20:05:26.028Z,9.11
2022-12-23T20:07:53.599Z,9.31
2022-12-23T20:10:22.488Z,9.35
2022-12-23T20:12:52.912Z,9.25
2022-12-23T20:15:20.646Z,9.29
2022-12-23T20:17:49.723Z,9.44
2022-12-23T20:20:17.634Z,9.25
2022-12-23T20:22:45.193Z,9.50
2022-12-23T20:25:12.866Z,9.20
2022-12-23T20:27:40.517Z,9.41
2022-12-23T20:30:08.704Z,9.44
2022-12-23T20:32:36.260Z,9.43
2022-12-23T20:35:04.138Z,9.29
2022-12-23T20:37:57.302Z,9.36
2022-12-23T20:40:24.934Z,9.45
2022-12-23T20:42:52.467Z,9.44
2022-12-23T20:45:20.995Z,9.54
2022-12-23T20:47:48.516Z,9.32
2022-12-23T20:50:16.095Z,9.39
2022-12-23T20:52:43.717Z,9.50
2022-12-23T20:55:11.237Z,9.21
2022-12-23T20:57:38.934Z,9.36
2022-12-23T21:00:07.451Z,9.39
2022-12-23T21:02:35.113Z,9.27
2022-12-23T21:05:02.710Z,9.15
2022-12-23T21:07:30.371Z,9.20
2022-12-23T21:09:57.937Z,9.03
2022-12-23T21:12:36.044Z,9.03
2022-12-23T21:15:03.757Z,8.93
2022-12-23T21:17:31.311Z,8.86
2022-12-23T21:20:06.951Z,8.84
2022-12-23T21:22:35.134Z,8.98
2022-12-23T21:25:02.593Z,9.12
2022-12-23T21:27:30.191Z,9.06
2022-12-23T21:29:57.776Z,9.17
2022-12-23T21:32:25.376Z,9.14
2022-12-23T21:34:52.828Z,9.08
2022-12-23T21:37:20.300Z,9.09
2022-12-23T21:39:47.832Z,9.04
2022-12-23T21:42:15.464Z,8.91
2022-12-23T21:44:42.881Z,8.98
2022-12-23T21:47:10.421Z,8.90
2022-12-23T21:49:37.975Z,9.05
2022-12-23T21:52:06.507Z,9.03
2022-12-23T21:54:34.020Z,9.18
2022-12-23T21:57:01.543Z,9.28
2022-12-23T21:59:34.741Z,9.30
2022-12-23T22:02:02.968Z,9.17
2022-12-23T22:04:30.534Z,9.24
2022-12-23T22:06:58.058Z,9.30
2022-12-23T22:09:25.599Z,9.31
2022-12-23T22:11:56.492Z,9.41
2022-12-23T22:14:24.000Z,9.48
2022-12-23T22:16:51.658Z,9.31
2022-12-23T22:19:19.271Z,9.30
2022-12-23T22:21:46.894Z,9.12
2022-12-23T22:24:14.533Z,9.21
2022-12-23T22:26:42.129Z,9.23
2022-12-23T22:29:11.334Z,9.22
2022-12-23T22:31:49.118Z,9.26
2022-12-23T22:34:21.468Z,9.18
2022-12-23T22:36:49.993Z,9.36
2022-12-23T22:39:21.647Z,9.53
2022-12-23T22:41:52.524Z,9.75
2022-12-23T22:44:20.759Z,9.73
2022-12-23T22:46:48.800Z,9.70
2022-12-23T22:49:17.283Z,9.46
2022-12-23T22:51:47.635Z,9.43
2022-12-23T22:54:15.420Z,9.45
2022-12-23T22:56:43.223Z,9.35
2022-12-23T22:59:20.207Z,9.28
2022-12-23T23:01:48.703Z,9.28
2022-12-23T23:04:28.569Z,9.27
2022-12-23T23:07:01.972Z,9.14
2022-12-23T23:21:54.668Z,9.43
